createdAt,value
2023-04-13T00:04:58.632Z,49.49
2023-04-13T00:20:00.681Z,49.16
2023-04-13T00:35:03.312Z,49.11
2023-04-13T00:50:06.506Z,49.28
2023-04-13T01:05:08.987Z,49.17
2023-04-13T01:20:16.177Z,49.11
2023-04-13T01:35:18.505Z,48.99
2023-04-13T01:50:31.722Z,49.03
2023-04-13T02:05:34.326Z,48.57
2023-04-13T02:20:40.291Z,48.73
2023-04-13T02:35:41.985Z,48.77
2023-04-13T02:50:43.712Z,48.50
2023-04-13T03:05:45.376Z,49.04
2023-04-13T03:20:47.199Z,48.68
2023-04-13T03:35:48.857Z,49.07
2023-04-13T03:50:50.504Z,48.73
2023-04-13T04:05:52.304Z,48.53
2023-04-13T04:20:54.050Z,48.72
2023-04-13T04:35:55.680Z,48.55
2023-04-13T04:50:57.555Z,49.14
2023-04-13T05:05:59.265Z,48.92
2023-04-13T05:21:00.915Z,49.12
2023-04-13T05:36:04.016Z,50.36
2023-04-13T05:51:05.996Z,50.59
2023-04-13T06:06:07.981Z,50.76
2023-04-13T06:21:09.605Z,50.41
2023-04-13T06:36:11.303Z,50.53
2023-04-13T06:51:12.998Z,50.48
2023-04-13T07:06:14.734Z,50.31
2023-04-13T07:21:16.383Z,50.35
2023-04-13T07:36:18.075Z,50.23
2023-04-13T07:51:20.416Z,50.49
2023-04-13T08:06:22.191Z,50.08
2023-04-13T08:21:23.883Z,50.32
2023-04-13T08:36:25.689Z,49.99
2023-04-13T08:51:29.915Z,50.17
2023-04-13T09:06:35.108Z,50.09
2023-04-13T09:21:44.652Z,49.46
2023-04-13T09:36:54.223Z,49.29
2023-04-13T09:51:57.507Z,48.67
2023-04-13T10:06:59.177Z,48.69
2023-04-13T10:22:01.202Z,49.02
2023-04-13T10:37:03.040Z,49.25
2023-04-13T10:52:04.800Z,48.91
2023-04-13T11:07:06.813Z,48.93
2023-04-13T11:22:13.243Z,49.23
2023-04-13T11:37:15.747Z,49.26
2023-04-13T11:52:17.610Z,48.70
2023-04-13T12:07:19.809Z,48.98
2023-04-13T12:22:21.817Z,48.70
2023-04-13T12:37:23.619Z,48.79
2023-04-13T12:52:25.256Z,49.36
2023-04-13T13:07:27.066Z,49.14
2023-04-13T13:22:28.771Z,49.36
2023-04-13T13:37:30.460Z,49.80
2023-04-13T13:52:32.176Z,49.72
2023-04-13T14:07:33.884Z,49.92
2023-04-13T14:22:39.390Z,50.23
2023-04-13T14:37:41.258Z,49.19
2023-04-13T14:52:46.825Z,49.97
2023-04-13T15:07:48.687Z,49.50
2023-04-13T15:22:50.568Z,49.58
2023-04-13T15:37:52.480Z,49.29
2023-04-13T15:52:54.184Z,49.90
2023-04-13T16:07:55.841Z,49.66
2023-04-13T16:22:57.515Z,48.27
2023-04-13T16:37:59.279Z,47.74
2023-04-13T16:53:03.834Z,47.17
2023-04-13T17:08:07.837Z,47.03
2023-04-13T17:23:09.612Z,47.86
2023-04-13T17:38:11.294Z,47.83
2023-04-13T17:53:13.033Z,47.94
2023-04-13T18:08:14.705Z,47.44
2023-04-13T18:23:16.763Z,47.55
2023-04-13T18:38:18.500Z,48.41
2023-04-13T18:53:20.249Z,47.71
2023-04-13T19:08:21.944Z,48.08
2023-04-13T19:23:23.578Z,48.15
2023-04-13T19:38:25.380Z,48.31
2023-04-13T19:53:27.050Z,47.90
2023-04-13T20:08:28.823Z,48.50
2023-04-13T20:23:30.624Z,48.49
2023-04-13T20:38:32.735Z,48.63
2023-04-13T20:53:35.690Z,48.77
2023-04-13T21:08:37.388Z,48.55
2023-04-13T21:23:39.092Z,48.53
2023-04-13T21:38:41.535Z,48.75
2023-04-13T21:53:43.212Z,48.50
2023-04-13T22:08:44.938Z,48.52
2023-04-13T22:23:46.686Z,48.56
2023-04-13T22:38:48.645Z,48.50
2023-04-13T22:53:50.327Z,48.35
2023-04-13T23:08:52.106Z,48.45
2023-04-13T23:23:53.740Z,48.64
2023-04-13T23:38:55.438Z,48.12
2023-04-13T23:53:57.102Z,48.44
